• Join FlightAware (Why Join?)
  • Login
  • US Flag 
01:26PM EDT


 

Airport Tracker/Info


-or-


 

Live Flight TrackerFlight Track Log ✈ N292P ✈ 16-May-2013 ✈ KTNP - KVGT

Flight Track Log - Related Links

Times and Time Zones

All times are in EDT time to prevent confusion due to time zone crossing. See the N292P flight status page for this flight to view local times or setup timezone preferences in your user account.

Time Position Orientation Groundspeed Altitude Reporting Facility
EDT Latitude Longitude Course Direction KTS MPH feet Rate Location/Type
06:39PM 34.1194 -115.8197 65° Northeast 212 244 5,700  Level Los Angeles Center
06:40PM 34.1500 -115.7406 65° Northeast 221 254 7,400 1,560 Climbing Los Angeles Center
06:41PM 34.1886 -115.6814 52° Northeast 222 255 9,000 1,680 Climbing Los Angeles Center
06:42PM 34.2242 -115.6406 44° Northeast 199 229 10,900 960 Climbing Los Angeles Center
06:43PM 34.2694 -115.5950 40° Northeast 203 234 11,000  Climbing Los Angeles Center
06:44PM 34.3206 -115.5358 44° Northeast 240 276 10,900 720 Descending Los Angeles Center
06:45PM 34.3842 -115.5083 20° North 243 280 12,500 1,680 Climbing Los Angeles Center
06:46PM 34.4417 -115.4844 19° North 198 228 14,400 1,200 Climbing Los Angeles Center
06:47PM 34.4950 -115.4589 22° Northeast 203 234 15,000 300 Climbing Los Angeles Center
06:48PM 34.5606 -115.4300 20° North 243 280 15,100  Climbing Los Angeles Center
06:49PM 34.6442 -115.3931 20° North 266 306 15,100  Level Los Angeles Center
06:50PM 34.7161 -115.3622 19° North 274 315 15,100  Level Los Angeles Center
06:52PM 34.7886 -115.3292 21° North 277 319 15,100  Level Los Angeles Center
06:53PM 34.8597 -115.2964 21° North 274 315 15,100 -240 Level Los Angeles Center
06:54PM 34.9383 -115.2608 20° North 271 312 14,700 -660 Descending Los Angeles Center
06:55PM 34.9989 -115.2339 20° North 266 306 13,800 -1,080 Descending Los Angeles Center
06:56PM 35.0803 -115.1972 20° North 260 299 12,500 -1,200 Descending Los Angeles Center
06:57PM 35.1475 -115.1750 15° North 258 297 11,400 -960 Descending Los Angeles Center
06:58PM 35.2133 -115.1931 347° North 246 283 10,600 -600 Descending Los Angeles Center
06:59PM 35.2794 -115.2064 351° North 242 278 10,200 -240 Descending Los Angeles Center
07:00PM 35.3431 -115.2139 355° North 236 272 10,200 -60 Level Los Angeles Center
07:01PM 35.4067 -115.1892 18° North 246 283 10,100 -120 Descending Los Angeles Center
07:01PM 35.4511 -115.1747 15° North 243 280 10,100  Level Los Angeles Center
07:02PM 35.4875 -115.1700 North 242 278 10,100  Level Los Angeles Center
07:02PM 35.5181 -115.1739 354° North 238 274 10,100  Level Los Angeles Center
07:03PM 35.5531 -115.1742 360° North 239 275 10,100  Level Los Angeles Center
07:03PM 35.5781 -115.1728 North 236 272 10,100 -420 Level Los Angeles Center
07:04PM 35.6175 -115.1694 North 236 272 9,700 -720 Descending Los Angeles Center
07:04PM 35.6483 -115.1681 North 233 268 9,300 -780 Descending Los Angeles Center
07:05PM 35.6825 -115.1658 North 234 269 8,900 -780 Descending Los Angeles Center
07:06PM 35.7469 -115.1625 North 234 269 8,100 -840 Descending Los Angeles Center
07:06PM 35.7744 -115.1611 North 225 259 7,800 -720 Descending Los Angeles Center
07:07PM 35.8203 -115.1578 North 227 261 7,400 -720 Descending Los Angeles Center
07:07PM 35.8361 -115.1569 North 221 254 7,100 -900 Descending Los Angeles Center
07:08PM 35.8808 -115.1550 North 222 255 6,500 -840 Descending Los Angeles Center
07:09PM 35.9050 -115.1556 359° North 220 253 6,100 -420 Descending Los Angeles Center
07:09PM 35.9400 -115.1494 North 219 252 6,100  Level Los Angeles Center
07:09PM 35.9592 -115.1375 27° Northeast 211 243 6,100  Level Los Angeles Center
07:10PM 35.9903 -115.1231 21° North 205 236 6,100  Level Los Angeles Center
07:11PM 36.0228 -115.1114 16° North 207 238 6,100  Level Los Angeles Center
07:11PM 36.0447 -115.0992 24° Northeast 204 235 6,100  Level Los Angeles Center
07:12PM 36.0817 -115.0944 North 202 232 6,100  Level Los Angeles Center
07:12PM 36.0981 -115.1053 332° Northwest 205 236 6,100 -780 Level Los Angeles Center
07:13PM 36.1192 -115.1275 320° Northwest 179 206 5,400 -1,980 Descending Los Angeles Center
07:13PM 36.1544 -115.1319 354° North 191 220 4,100 -1,680 Descending Los Angeles Center
07:14PM 36.1717 -115.1314 North 185 213 3,700 -900 Descending Los Angeles Center
07:14PM 36.2000 -115.1286 North 179 206 3,200 -660 Descending Los Angeles Center
07:15PM 36.2136 -115.1525 305° West 126 145 2,600 -480 Descending Los Angeles Center
07:16PM 36.2147 -115.1789 273° West 94 108 2,300 -300 Descending Los Angeles Center
07:18PM 36.2000 -115.1833 270° West  Level FlightAware Approximate